• Join FlightAware (Why Join?)
  • Login
  • US Flag 
02:38AM EST


 

Airport Tracker/Info


-or-


 

Live Flight TrackerFlight Track Log ✈ XOJ750 ✈ 28-Jun-2013 ✈ KASE - KPGD

Flight Track Log - Related Links

Times and Time Zones

All times are in EDT time to prevent confusion due to time zone crossing. See the XOJ750 flight status page for this flight to view local times or setup timezone preferences in your user account.

Time Position Orientation Groundspeed Altitude Reporting Facility
EDT Latitude Longitude Course Direction KTS MPH feet Rate Location/Type
05:40PM 39.2853 -106.9314 113° Southeast 244 281 10,100  Level Denver Center
05:41PM 39.3006 -107.0200 283° West 247 284 12,700 2,220 Climbing Denver Center
05:42PM 39.3361 -107.1086 297° West 278 320 14,800 1,980 Climbing Denver Center
05:43PM 39.2764 -107.1617 215° Southwest 303 349 16,800 1,800 Climbing Denver Center
05:44PM 39.2136 -107.0819 135° Southeast 321 369 18,600 1,980 Climbing Denver Center
05:45PM 38.9156 -105.9604 113° Southeast  Level Estimated
05:45PM 39.1122 -107.0367 161° South 344 396 21,000  Level Denver Center
05:46PM 39.0175 -107.0372 180° South 352 405 22,900 1,980 Climbing Denver Center
05:47PM 38.9031 -107.0378 180° South 363 418 25,100 1,740 Climbing Denver Center
05:48PM 38.8169 -106.9908 157° South 379 436 26,600 1,500 Climbing Denver Center
05:49PM 38.7336 -106.8994 139° Southeast 392 451 28,200 1,500 Climbing Denver Center
05:50PM 38.6522 -106.7997 136° Southeast 404 465 29,800 1,380 Climbing Denver Center
05:51PM 38.5783 -106.6856 130° Southeast 413 475 31,100 1,140 Climbing Denver Center
05:52PM 38.4789 -106.5383 131° Southeast 444 511 32,200 960 Climbing Denver Center
05:53PM 38.3933 -106.4194 133° Southeast 464 534 33,100 900 Climbing Denver Center
05:54PM 38.3058 -106.2894 131° Southeast 482 555 34,100 960 Climbing Denver Center
05:56PM 38.2108 -106.1517 131° Southeast 493 567 35,100 1,140 Climbing Denver Center
05:57PM 38.1106 -106.0008 130° Southeast 499 574 36,500 1,500 Climbing Denver Center
05:58PM 38.0253 -105.8739 130° Southeast 496 571 38,200 1,260 Climbing Denver Center
05:59PM 37.9436 -105.7444 129° Southeast 492 566 39,200 1,020 Climbing Denver Center
06:00PM 37.8478 -105.5903 128° Southeast 499 574 40,300 1,020 Climbing Denver Center
06:01PM 37.7622 -105.4572 129° Southeast 507 583 41,300 960 Climbing Denver Center
06:02PM 37.6642 -105.3036 129° Southeast 504 580 42,400 720 Climbing Denver Center
06:03PM 37.5803 -105.1708 129° Southeast 507 583 42,900 480 Climbing Denver Center
06:04PM 37.4817 -105.0161 129° Southeast 508 585 43,400 420 Climbing Denver Center
06:05PM 37.3961 -104.8842 129° Southeast 510 587 43,800 480 Climbing Denver Center
06:06PM 37.2961 -104.7317 129° Southeast 508 585 44,500 540 Climbing Denver Center
06:07PM 37.2128 -104.6022 129° Southeast 503 579 45,000 240 Climbing Denver Center
06:08PM 37.1142 -104.4528 130° Southeast 502 578 45,000  Level Denver Center
06:09PM 37.0306 -104.3236 129° Southeast 502 578 45,000  Level Albuquerque Center
06:10PM 36.9461 -104.1956 130° Southeast 501 577 45,000  Level Albuquerque Center
06:11PM 36.8608 -104.0669 130° Southeast 503 579 45,100 180 Climbing Albuquerque Center
06:12PM 36.7619 -103.9172 129° Southeast 502 578 45,400 240 Climbing Albuquerque Center
06:13PM 36.6781 -103.7914 130° Southeast 498 573 45,700 240 Climbing Albuquerque Center
06:14PM 36.5864 -103.6561 130° Southeast 496 571 46,000 240 Climbing Albuquerque Center
06:15PM 36.5153 -103.5097 121° Southeast 487 560 46,300 240 Climbing Albuquerque Center
06:16PM 36.4531 -103.3558 117° Southeast 491 565 46,600 240 Climbing Albuquerque Center
06:17PM 36.3919 -103.2047 117° Southeast 486 559 46,900 180 Climbing Albuquerque Center
06:18PM 36.3203 -103.0292 117° Southeast 485 558 47,000  Climbing Albuquerque Center
06:19PM 36.2619 -102.8867 117° Southeast 484 557 47,000  Level Albuquerque Center
06:20PM 36.2003 -102.7375 117° Southeast 487 560 47,000  Level Albuquerque Center
06:21PM 36.1386 -102.5881 117° Southeast 487 560 47,000  Level Albuquerque Center
06:22PM 36.0769 -102.4400 117° Southeast 485 558 47,000  Level Albuquerque Center
06:23PM 36.0150 -102.2903 117° Southeast 488 562 47,000  Level Albuquerque Center
06:24PM 35.9394 -102.1114 118° Southeast 490 564 47,000  Level Albuquerque Center
06:25PM 35.8764 -101.9625 118° Southeast 489 563 47,000  Level Albuquerque Center
06:26PM 35.8139 -101.8125 117° Southeast 491 565 47,000  Level Albuquerque Center
06:27PM 35.7517 -101.6658 118° Southeast 484 557 47,000  Level Albuquerque Center
06:28PM 35.6881 -101.5161 118° Southeast 488 562 47,000  Level Albuquerque Center
06:29PM 35.6233 -101.3675 118° Southeast 489 563 47,000  Level Albuquerque Center
06:30PM 35.5594 -101.2186 118° Southeast 489 563 47,000  Level Albuquerque Center
06:31PM 35.4939 -101.0703 118° Southeast 491 565 47,000  Level Albuquerque Center
06:32PM 35.4289 -100.9217 118° Southeast 492 566 47,000  Level Albuquerque Center
06:33PM 35.3639 -100.7736 118° Southeast 493 567 47,000  Level Albuquerque Center
06:34PM 35.2972 -100.6231 118° Southeast 492 566 47,000  Level Albuquerque Center
06:36PM 35.2203 -100.4469 118° Southeast 491 565 47,000  Level Albuquerque Center
06:37PM 35.1542 -100.2994 119° Southeast 493 567 47,000  Level Albuquerque Center
06:38PM 35.0883 -100.1539 119° Southeast 492 566 47,000  Level Albuquerque Center
06:39PM 35.0242 -100.0078 118° Southeast 491 565 47,000  Level Albuquerque Center
06:40PM 34.9578 -99.8625 119° Southeast 491 565 47,000  Level Albuquerque Center
06:41PM 34.8906 -99.7169 119° Southeast 487 560 47,000  Level Fort Worth Center
06:42PM 34.8244 -99.5736 119° Southeast 493 567 47,000  Level Fort Worth Center
06:43PM 34.7581 -99.4253 119° Southeast 493 567 47,000  Level Fort Worth Center
06:44PM 34.6914 -99.2800 119° Southeast 493 567 47,000  Level Fort Worth Center
06:45PM 34.6247 -99.1344 119° Southeast 493 567 47,000  Level Fort Worth Center
06:46PM 34.5536 -98.9819 119° Southeast 487 560 47,000  Level Fort Worth Center
06:47PM 34.4864 -98.8369 119° Southeast 487 560 47,000  Level Fort Worth Center
06:48PM 34.4172 -98.6922 120° Southeast 492 566 47,000  Level Fort Worth Center
06:49PM 34.3497 -98.5456 119° Southeast 492 566 47,000  Level Fort Worth Center
06:50PM 34.2800 -98.3989 120° Southeast 492 566 47,000  Level Fort Worth Center
06:51PM 34.2164 -98.2675 120° Southeast 499 574 47,000  Level Fort Worth Center
06:52PM 34.1483 -98.1186 119° Southeast 499 574 47,000  Level Fort Worth Center
06:53PM 34.0803 -97.9578 117° Southeast 499 574 47,000  Level Fort Worth Center
06:54PM 34.0119 -97.8144 120° Southeast 499 574 47,000  Level Fort Worth Center
06:55PM 33.9414 -97.6689 120° Southeast 494 568 47,000  Level Fort Worth Center
06:56PM 33.8747 -97.5311 120° Southeast 494 568 47,000  Level Fort Worth Center
06:57PM 33.8061 -97.3886 120° Southeast 494 568 47,000  Level Fort Worth Center
06:58PM 33.7369 -97.2461 120° Southeast 494 568 47,000  Level Fort Worth Center
06:59PM 33.6681 -97.1089 121° Southeast 488 562 47,000  Level Fort Worth Center
07:00PM 33.6008 -96.9669 120° Southeast 488 562 47,000  Level Fort Worth Center
07:01PM 33.5314 -96.8278 121° Southeast 488 562 47,000  Level Fort Worth Center
07:02PM 33.4700 -96.7036 121° Southeast 488 562 47,000  Level Fort Worth Center
07:03PM 33.4003 -96.5650 121° Southeast 488 562 47,000  Level Fort Worth Center
07:04PM 33.3306 -96.4264 121° Southeast 488 562 47,000  Level Fort Worth Center
07:05PM 33.2625 -96.2856 120° Southeast 488 562 47,000  Level Fort Worth Center
07:06PM 33.1922 -96.1475 121° Southeast 488 562 47,000  Level Fort Worth Center
07:07PM 33.1344 -96.0019 115° Southeast 488 562 47,000  Level Fort Worth Center
07:08PM 33.1014 -95.8461 104° East 471 542 47,000  Level Fort Worth Center
07:09PM 33.0681 -95.6906 104° East 477 549 47,000  Level Fort Worth Center
07:10PM 33.0281 -95.5378 107° East 477 549 47,000  Level Fort Worth Center
07:11PM 32.9986 -95.3775 102° East 477 549 47,000  Level Fort Worth Center
07:12PM 32.9647 -95.2222 105° East 482 555 47,000  Level Fort Worth Center
07:13PM 32.9222 -95.0672 108° East 482 555 47,000  Level Fort Worth Center
07:14PM 32.8506 -94.9306 122° Southeast 482 555 47,000  Level Fort Worth Center
07:15PM 32.7728 -94.7969 125° Southeast 487 560 47,000  Level Fort Worth Center
07:16PM 32.6947 -94.6611 124° Southeast 492 566 47,000  Level Fort Worth Center
07:17PM 32.6186 -94.5278 124° Southeast 497 572 47,000  Level Fort Worth Center
07:18PM 32.5425 -94.3944 124° Southeast 491 565 47,000  Level Fort Worth Center
07:19PM 32.4664 -94.2642 125° Southeast 486 559 47,000  Level Fort Worth Center
07:20PM 32.3919 -94.1339 124° Southeast 486 559 47,000  Level Fort Worth Center
07:21PM 32.3133 -94.0039 126° Southeast 486 559 47,000  Level Fort Worth Center
07:23PM 32.1286 -93.6825 124° Southeast 474 545 47,000  Level Houston Center
07:24PM 32.0561 -93.5617 125° Southeast 472 543 47,000  Level Houston Center
07:25PM 31.9814 -93.4347 125° Southeast 472 543 47,000  Level Houston Center
07:26PM 31.9067 -93.3086 125° Southeast 470 541 47,000  Level Houston Center
07:27PM 31.8175 -93.1586 125° Southeast 467 537 47,000  Level Houston Center
07:28PM 31.7497 -93.0447 125° Southeast 468 539 47,000  Level Houston Center
07:29PM 31.6750 -92.9228 126° Southeast 462 532 47,000  Level Houston Center
07:30PM 31.6008 -92.7986 125° Southeast 465 535 47,000  Level Houston Center
07:31PM 31.5117 -92.6506 125° Southeast 463 533 47,000  Level Houston Center
07:32PM 31.4369 -92.5267 125° Southeast 466 536 47,000  Level Houston Center
07:33PM 31.3594 -92.4014 126° Southeast 473 544 47,000  Level Houston Center
07:34PM 31.2853 -92.2778 125° Southeast 468 539 47,000  Level Houston Center
07:35PM 31.2081 -92.1533 126° Southeast 470 541 47,000  Level Houston Center
07:36PM 31.1181 -92.0089 126° Southeast 473 544 47,000  Level Houston Center
07:38PM 31.0419 -91.8839 125° Southeast 474 545 47,000  Level Houston Center
07:39PM 30.9642 -91.7589 126° Southeast 475 547 47,000  Level Houston Center
07:40PM 30.8881 -91.6347 126° Southeast 473 544 47,000  Level Houston Center
07:41PM 30.8108 -91.5108 126° Southeast 473 544 47,000  Level Houston Center
07:42PM 30.7328 -91.3864 126° Southeast 474 545 47,000  Level Houston Center
07:43PM 30.6572 -91.2639 126° Southeast 471 542 47,000  Level Houston Center
07:44PM 30.5647 -91.1164 126° Southeast 471 542 47,000  Level Houston Center
07:45PM 30.4858 -90.9958 127° Southeast 471 542 47,000  Level Houston Center
07:46PM 30.4108 -90.8758 126° Southeast 466 536 47,000  Level Houston Center
07:47PM 30.3350 -90.7567 126° Southeast 462 532 47,000  Level Houston Center
07:48PM 30.2569 -90.6361 127° Southeast 462 532 47,000  Level Houston Center
07:49PM 30.1842 -90.5200 126° Southeast 457 526 47,000  Level Houston Center
07:50PM 30.0944 -90.3822 127° Southeast 451 519 47,000  Level Houston Center
07:51PM 30.0203 -90.2667 127° Southeast 451 519 47,000  Level Houston Center
07:52PM 29.9461 -90.1517 127° Southeast 451 519 47,000  Level Houston Center
07:53PM 29.8706 -90.0350 127° Southeast 458 527 47,000  Level Houston Center
07:54PM 29.7911 -89.9236 129° Southeast 455 524 47,000  Level Houston Center
07:55PM 29.7039 -89.7828 125° Southeast 457 526 47,000  Level Houston Center
07:56PM 29.6653 -89.6444 108° East 456 525 47,000  Level Houston Center
07:57PM 29.6253 -89.5036 108° East 466 536 47,000  Level Houston Center
07:58PM 29.5853 -89.3644 108° East 463 533 47,000  Level Houston Center
07:59PM 29.5461 -89.2283 108° East 455 524 47,000  Level Houston Center
08:00PM 29.4978 -89.0617 108° East 459 528 47,000  Level Houston Center
08:01PM 29.4575 -88.9239 109° East 459 528 47,000  Level Houston Center
08:02PM 29.4172 -88.7872 109° East 455 524 47,000  Level Houston Center
08:03PM 29.3769 -88.6492 108° East 457 526 47,000 -60 Level Houston Center
08:04PM 29.3358 -88.5114 109° East 458 527 46,900  Descending Houston Center
08:05PM 29.2956 -88.3742 109° East 456 525 47,000  Climbing Houston Center
08:06PM 29.2467 -88.2106 109° East 453 521 47,000 -60 Level Houston Center
08:07PM 29.2056 -88.0750 109° East 452 520 46,900  Descending Houston Center
08:08PM 29.1694 -87.9547 109° East 455 524 47,000  Climbing Houston Center
08:10PM 29.1200 -87.7922 109° East 453 521 47,000 -60 Level Houston Center
08:11PM 29.0797 -87.6564 109° East 453 521 46,900  Descending Houston Center
08:12PM 29.0383 -87.5203 109° East 454 522 47,000  Climbing Houston Center
08:13PM 28.9958 -87.3844 110° East 454 522 47,000  Level Houston Center
08:14PM 28.9536 -87.2481 109° East 456 525 47,000  Level Houston Center
08:15PM 28.9133 -87.1119 109° East 455 524 47,000 -60 Level Houston Center
08:16PM 28.8606 -86.9475 110° East 459 528 46,900  Descending Houston Center
08:17PM 28.8189 -86.8119 109° East 457 526 47,000  Climbing Houston Center
08:18PM 28.7767 -86.6758 109° East 455 524 47,000 -60 Level Houston Center
08:19PM 28.7247 -86.5194 111° Southeast 458 527 46,900  Descending Jacksonville Center
08:20PM 28.6825 -86.3831 109° East 453 521 47,000  Climbing Jacksonville Center
08:21PM 28.6383 -86.2442 110° East 458 527 46,900  Descending Jacksonville Center
08:22PM 28.5958 -86.1128 110° East 453 521 47,000  Climbing Jacksonville Center
08:23PM 28.5511 -85.9767 110° East 453 521 46,900  Descending Jacksonville Center
08:24PM 28.5083 -85.8406 110° East 458 527 47,000  Climbing Jacksonville Center
08:25PM 28.4636 -85.7025 110° East 458 527 47,000  Level Jacksonville Center
08:26PM 28.4203 -85.5714 111° Southeast 453 521 47,000  Level Jacksonville Center
08:28PM 28.3372 -85.3108 110° East 456 525 47,000  Level Miami Center
08:29PM 28.2931 -85.1733 110° East 461 531 47,000  Level Miami Center
08:30PM 28.2489 -85.0383 110° East 461 531 47,000 -60 Level Miami Center
08:31PM 28.2042 -84.9056 111° Southeast 461 531 46,900 -60 Descending Miami Center
08:32PM 28.1597 -84.7708 110° East 455 524 46,900  Level Miami Center
08:33PM 28.1111 -84.6311 111° Southeast 466 536 47,000  Climbing Miami Center
08:34PM 28.0681 -84.4964 110° East 459 528 47,000 -300 Level Miami Center
08:35PM 28.0250 -84.3644 110° East 459 528 46,500 -1,140 Descending Miami Center
08:36PM 27.9800 -84.2322 111° Southeast 459 528 44,800 -2,040 Descending Miami Center
08:37PM 27.9325 -84.0956 111° Southeast 465 535 42,500 -1,920 Descending Miami Center
08:38PM 27.8872 -83.9611 111° Southeast 465 535 41,000 -2,280 Descending Miami Center
08:39PM 27.8417 -83.8247 111° Southeast 459 528 38,000 -3,480 Descending Miami Center
08:40PM 27.7925 -83.6786 111° Southeast 478 550 34,100 -4,140 Descending Miami Center
08:41PM 27.7428 -83.5397 112° Southeast 478 550 29,800 -4,440 Descending Miami Center
08:42PM 27.6969 -83.3986 110° East 478 550 25,300 -4,500 Descending Miami Center
08:43PM 27.6511 -83.2625 111° Southeast 478 550 20,800 -4,500 Descending Miami Center
08:44PM 27.6025 -83.1311 113° Southeast 465 535 16,300 -3,900 Descending Miami Center
08:45PM 27.5619 -83.0072 110° East 446 513 13,000 -1,860 Descending Miami Center
08:46PM 27.5192 -82.8833 111° Southeast 428 493 12,600 -660 Descending Miami Center
08:47PM 27.4667 -82.7833 121° Southeast 345 397 11,800 -2,040 Descending Tampa TRACON
08:48PM 27.4000 -82.7167 138° Southeast 294 338 8,900 -3,060 Descending Tampa TRACON
08:49PM 27.3500 -82.6667 138° Southeast 283 326 5,700 -1,980 Descending Tampa TRACON
08:50PM 27.2833 -82.6000 138° Southeast 279 321 5,000 -360 Descending Tampa TRACON
08:51PM 27.2333 -82.5500 138° Southeast 278 320 5,000  Level Tampa TRACON
08:53PM 27.0903 -82.4483 148° Southeast 276 318 5,000  Level Miami Center
08:55PM 27.0079 -82.2277 121° Southeast  Level Estimated
09:02PM 26.9167 -81.9833 123° Southeast  Level FlightAware Approximate
09:03PM 26.9189 -81.9909 123° Southeast  Level Estimated
09:04PM 26.9167 -81.9833 123° Southeast  Level FlightAware Approximate
09:05PM 26.9189 -81.9909 123° Southeast  Level Estimated
09:06PM 26.9167 -81.9833 123° Southeast  Level FlightAware Approximate
09:07PM 26.9189 -81.9909 123° Southeast  Level Estimated
09:08PM 26.9167 -81.9833 123° Southeast  Level FlightAware Approximate
09:09PM 26.9189 -81.9909 123° Southeast  Level Estimated